createdAt,value
2022-11-29T00:00:07.031Z,1.60
2022-11-29T00:01:12.204Z,1.70
2022-11-29T00:02:15.554Z,1.42
2022-11-29T00:03:17.940Z,1.60
2022-11-29T00:04:21.377Z,1.67
2022-11-29T00:05:23.591Z,1.60
2022-11-29T00:06:29.256Z,1.30
2022-11-29T00:07:32.490Z,1.40
2022-11-29T00:08:35.084Z,1.60
2022-11-29T00:09:38.324Z,1.60
2022-11-29T00:10:41.941Z,1.77
2022-11-29T00:12:02.814Z,1.70
2022-11-29T00:13:06.152Z,1.60
2022-11-29T00:14:10.433Z,1.45
2022-11-29T00:15:13.895Z,1.77
2022-11-29T00:16:16.113Z,1.45
2022-11-29T00:17:19.420Z,1.98
2022-11-29T00:18:21.948Z,1.67
2022-11-29T00:19:25.174Z,1.77
2022-11-29T00:20:27.437Z,1.63
2022-11-29T00:21:30.969Z,1.58
2022-11-29T00:22:34.183Z,1.83
2022-11-29T00:23:36.901Z,1.60
2022-11-29T00:24:40.079Z,1.48
2022-11-29T00:25:43.700Z,1.70
2022-11-29T00:26:46.888Z,1.85
2022-11-29T00:27:49.012Z,1.60
2022-11-29T00:28:52.497Z,1.67
2022-11-29T00:29:54.781Z,1.87
2022-11-29T00:30:58.184Z,1.50
2022-11-29T00:32:00.556Z,2.05
2022-11-29T00:33:04.691Z,1.95
2022-11-29T00:34:07.204Z,1.75
2022-11-29T00:35:10.618Z,1.70
2022-11-29T00:36:13.370Z,1.90
2022-11-29T00:37:16.698Z,1.85
2022-11-29T00:38:18.975Z,1.88
2022-11-29T00:39:22.362Z,1.35
2022-11-29T00:40:24.718Z,1.60
2022-11-29T00:41:29.486Z,1.75
2022-11-29T00:42:32.222Z,2.08
2022-11-29T00:43:35.806Z,1.95
2022-11-29T00:44:39.029Z,1.80
2022-11-29T00:45:41.385Z,1.67
2022-11-29T00:46:44.748Z,1.90
2022-11-29T00:47:47.059Z,1.67
2022-11-29T00:48:50.516Z,1.67
2022-11-29T00:49:52.715Z,1.90
2022-11-29T00:50:56.128Z,1.90
2022-11-29T00:51:58.377Z,1.70
2022-11-29T00:53:01.589Z,1.80
2022-11-29T00:54:04.007Z,1.90
2022-11-29T00:55:08.243Z,1.90
2022-11-29T00:56:11.853Z,1.70
2022-11-29T00:57:16.489Z,2.65
2022-11-29T00:58:19.301Z,2.15
2022-11-29T00:59:22.686Z,2.35
2022-11-29T01:00:25.068Z,2.70
2022-11-29T01:01:28.262Z,2.03
2022-11-29T01:02:30.542Z,1.85
2022-11-29T01:03:34.213Z,1.70
2022-11-29T01:04:36.490Z,2.00
2022-11-29T01:05:40.550Z,2.10
2022-11-29T01:06:42.648Z,2.03
2022-11-29T01:07:45.930Z,1.75
2022-11-29T01:08:48.349Z,2.10
2022-11-29T01:09:51.547Z,2.00
2022-11-29T01:11:02.225Z,2.20
2022-11-29T01:12:06.067Z,2.13
2022-11-29T01:13:10.932Z,2.00
2022-11-29T01:14:14.586Z,2.20
2022-11-29T01:15:16.965Z,2.25
2022-11-29T01:16:20.661Z,2.28
2022-11-29T01:17:22.985Z,1.88
2022-11-29T01:18:26.661Z,2.10
2022-11-29T01:19:29.991Z,2.00
2022-11-29T01:20:32.339Z,2.00
2022-11-29T01:21:35.758Z,1.98
2022-11-29T01:22:38.769Z,2.10
2022-11-29T01:23:42.831Z,2.35
2022-11-29T01:24:45.260Z,2.25
2022-11-29T01:25:57.499Z,1.90
2022-11-29T01:26:59.866Z,2.17
2022-11-29T01:28:03.045Z,1.88
2022-11-29T01:29:06.714Z,2.20
2022-11-29T01:30:11.317Z,2.35
2022-11-29T01:31:16.161Z,2.17
2022-11-29T01:32:19.465Z,2.28
2022-11-29T01:33:21.974Z,2.30
2022-11-29T01:34:25.150Z,2.20
2022-11-29T01:35:27.344Z,1.92
2022-11-29T01:36:30.990Z,2.28
2022-11-29T01:37:33.425Z,2.33
2022-11-29T01:38:37.992Z,1.90
2022-11-29T01:39:40.209Z,1.80
2022-11-29T01:40:43.609Z,1.95
2022-11-29T01:41:45.781Z,2.50
2022-11-29T01:42:48.985Z,2.60
2022-11-29T01:43:55.717Z,2.40
2022-11-29T01:45:15.201Z,2.45
2022-11-29T01:46:17.447Z,2.22
2022-11-29T01:47:20.885Z,2.30
2022-11-29T01:48:26.048Z,3.03
2022-11-29T01:49:33.783Z,1.90
2022-11-29T01:50:37.511Z,2.45
2022-11-29T01:51:44.144Z,2.40
2022-11-29T01:52:47.707Z,2.80
2022-11-29T01:53:51.152Z,1.95
2022-11-29T01:54:58.406Z,2.37
2022-11-29T01:56:05.795Z,2.28
2022-11-29T01:57:09.060Z,2.40
2022-11-29T01:58:12.881Z,2.03
2022-11-29T01:59:19.518Z,2.22
2022-11-29T02:00:24.472Z,2.22
2022-11-29T02:01:26.736Z,2.17
2022-11-29T02:02:34.137Z,2.35
2022-11-29T02:03:36.432Z,2.50
2022-11-29T02:04:40.721Z,2.20
2022-11-29T02:05:47.444Z,2.40
2022-11-29T02:06:50.956Z,2.10
2022-11-29T02:07:55.236Z,2.30
2022-11-29T02:08:58.618Z,2.72
2022-11-29T02:10:01.428Z,2.83
2022-11-29T02:11:30.419Z,2.10
2022-11-29T02:12:46.592Z,2.47
2022-11-29T02:13:57.907Z,2.42
2022-11-29T02:15:31.535Z,3.20
2022-11-29T02:16:41.270Z,3.15
2022-11-29T02:18:00.087Z,2.70
2022-11-29T02:19:19.859Z,2.70
2022-11-29T02:20:54.924Z,2.90
2022-11-29T02:22:04.713Z,2.88
2022-11-29T02:23:28.990Z,2.70
2022-11-29T02:24:56.668Z,2.88
2022-11-29T02:26:10.314Z,3.20
2022-11-29T02:27:55.931Z,2.60
2022-11-29T02:29:30.916Z,2.47
2022-11-29T02:30:56.509Z,2.65
2022-11-29T02:32:36.144Z,2.40
2022-11-29T02:34:11.037Z,2.80
2022-11-29T02:35:24.558Z,2.33
2022-11-29T02:36:43.146Z,2.50
2022-11-29T02:38:16.960Z,2.78
2022-11-29T02:39:44.614Z,2.53
2022-11-29T02:41:12.295Z,2.65
2022-11-29T02:42:56.077Z,2.30
2022-11-29T02:44:21.733Z,2.45
2022-11-29T02:45:39.735Z,2.60
2022-11-29T02:46:55.770Z,2.37
2022-11-29T02:48:19.287Z,2.38
2022-11-29T02:49:37.284Z,2.67
2022-11-29T02:50:45.375Z,3.00
2022-11-29T02:51:57.154Z,3.15
2022-11-29T02:53:07.819Z,2.08
2022-11-29T02:54:17.613Z,2.17
2022-11-29T02:55:29.672Z,2.13
2022-11-29T02:56:42.172Z,3.22
2022-11-29T02:57:55.445Z,2.97
2022-11-29T02:59:05.009Z,3.10
2022-11-29T03:00:11.073Z,2.88
2022-11-29T03:01:19.895Z,2.70
2022-11-29T03:02:29.902Z,2.55
2022-11-29T03:03:39.992Z,2.97
2022-11-29T03:04:49.717Z,2.85
2022-11-29T03:05:59.327Z,2.70
2022-11-29T03:07:07.527Z,3.25
2022-11-29T03:08:19.655Z,2.63
2022-11-29T03:09:29.827Z,2.70
2022-11-29T03:10:40.674Z,2.57
2022-11-29T03:11:48.816Z,2.75
2022-11-29T03:12:55.136Z,3.10
2022-11-29T03:14:13.431Z,3.05
2022-11-29T03:15:29.299Z,2.92
2022-11-29T03:16:43.696Z,2.60
2022-11-29T03:18:01.166Z,2.67
2022-11-29T03:19:15.543Z,2.33
2022-11-29T03:20:29.827Z,2.50
2022-11-29T03:21:41.939Z,2.50
2022-11-29T03:22:51.972Z,3.17
2022-11-29T03:23:57.672Z,2.35
2022-11-29T03:25:10.029Z,2.08
2022-11-29T03:26:16.096Z,2.40
2022-11-29T03:27:26.215Z,2.22
2022-11-29T03:28:32.391Z,2.45
2022-11-29T03:29:42.094Z,2.50
2022-11-29T03:30:52.980Z,2.20
2022-11-29T03:32:05.139Z,2.30
2022-11-29T03:33:13.255Z,2.10
2022-11-29T03:34:22.904Z,2.40
2022-11-29T03:35:33.828Z,2.45
2022-11-29T03:36:46.670Z,2.78
2022-11-29T03:37:58.155Z,2.10
2022-11-29T03:39:06.405Z,2.40
2022-11-29T03:40:10.959Z,2.30
2022-11-29T03:41:21.192Z,2.58
2022-11-29T03:42:30.009Z,2.40
2022-11-29T03:43:42.990Z,2.88
2022-11-29T03:45:02.640Z,2.30
2022-11-29T03:46:10.035Z,2.57
2022-11-29T03:47:15.429Z,2.40
2022-11-29T03:48:23.584Z,2.28
2022-11-29T03:49:31.616Z,2.90
2022-11-29T03:50:40.388Z,2.40
2022-11-29T03:51:53.296Z,2.53
2022-11-29T03:53:01.393Z,2.35
2022-11-29T03:54:09.912Z,2.50
2022-11-29T03:55:26.355Z,2.63
2022-11-29T03:56:31.756Z,2.83
2022-11-29T03:57:46.475Z,2.47
2022-11-29T03:58:54.719Z,2.80
2022-11-29T04:00:05.206Z,2.28
2022-11-29T04:01:39.449Z,2.38
2022-11-29T04:03:07.854Z,2.70
2022-11-29T04:04:48.831Z,2.67
2022-11-29T04:06:24.817Z,2.50
2022-11-29T04:07:37.253Z,2.00
2022-11-29T04:09:22.197Z,2.70
2022-11-29T04:10:47.380Z,2.42
2022-11-29T04:12:40.133Z,2.10
2022-11-29T04:14:02.030Z,2.33
2022-11-29T04:15:51.486Z,2.35
2022-11-29T04:17:33.728Z,2.55
2022-11-29T04:18:51.366Z,2.38
2022-11-29T04:20:24.147Z,2.60
2022-11-29T04:21:43.294Z,2.38
2022-11-29T04:23:25.440Z,2.45
2022-11-29T04:25:01.960Z,2.20
2022-11-29T04:26:33.554Z,2.30
2022-11-29T04:27:49.446Z,2.53
2022-11-29T04:29:15.731Z,2.40
2022-11-29T04:30:22.074Z,2.25
2022-11-29T04:31:36.961Z,2.95
2022-11-29T04:33:21.294Z,2.42
2022-11-29T04:35:07.806Z,2.50
2022-11-29T04:36:28.872Z,2.50
2022-11-29T04:39:24.245Z,2.57
2022-11-29T04:40:42.790Z,2.22
2022-11-29T04:42:05.892Z,2.63
2022-11-29T04:43:21.597Z,2.67
2022-11-29T04:44:51.808Z,2.30
2022-11-29T04:46:18.367Z,2.40
2022-11-29T04:47:48.312Z,3.10
2022-11-29T04:49:02.253Z,2.60
2022-11-29T04:50:18.301Z,2.55
2022-11-29T04:51:32.216Z,2.55
2022-11-29T04:52:59.242Z,2.20
2022-11-29T04:54:14.941Z,2.47
2022-11-29T04:55:31.085Z,2.60
2022-11-29T04:56:41.509Z,2.85
2022-11-29T04:57:51.680Z,2.40
2022-11-29T04:59:03.653Z,2.78
2022-11-29T05:00:10.155Z,2.65
2022-11-29T05:01:22.016Z,2.40
2022-11-29T05:02:33.586Z,2.90
2022-11-29T05:03:46.626Z,2.65
2022-11-29T05:04:56.639Z,2.77
2022-11-29T05:06:09.386Z,2.60
2022-11-29T05:07:28.149Z,3.08
2022-11-29T05:08:41.573Z,2.97
2022-11-29T05:10:00.340Z,2.65
2022-11-29T05:11:16.230Z,2.90
2022-11-29T05:12:25.421Z,2.60
2022-11-29T05:13:34.538Z,2.83
2022-11-29T05:14:51.929Z,2.78
2022-11-29T05:16:15.856Z,3.50
2022-11-29T05:17:32.911Z,2.80
2022-11-29T05:19:15.236Z,3.35
2022-11-29T05:20:36.005Z,2.85
2022-11-29T05:21:47.992Z,3.28
2022-11-29T05:23:07.157Z,3.05
2022-11-29T05:24:20.598Z,2.95
2022-11-29T05:25:37.076Z,2.97
2022-11-29T05:26:49.420Z,3.63
2022-11-29T05:27:58.800Z,3.13
2022-11-29T05:29:06.113Z,3.20
2022-11-29T05:30:13.531Z,3.40
2022-11-29T05:31:30.134Z,3.30
2022-11-29T05:32:39.947Z,3.03
2022-11-29T05:34:00.570Z,2.90
2022-11-29T05:35:36.341Z,3.05
2022-11-29T05:36:43.824Z,3.45
2022-11-29T05:37:50.700Z,3.55
2022-11-29T05:39:12.059Z,2.63
2022-11-29T05:40:45.213Z,3.30
2022-11-29T05:41:59.593Z,3.25
2022-11-29T05:43:20.144Z,3.13
2022-11-29T05:44:28.450Z,3.42
2022-11-29T05:45:38.368Z,3.75
2022-11-29T05:46:51.482Z,3.80
2022-11-29T05:48:01.612Z,3.70
2022-11-29T05:49:17.998Z,3.85
2022-11-29T05:50:28.567Z,3.50
2022-11-29T05:51:41.366Z,2.97
2022-11-29T05:52:52.149Z,3.55
2022-11-29T05:54:05.571Z,3.53
2022-11-29T05:55:23.312Z,3.27
2022-11-29T05:56:37.482Z,3.40
2022-11-29T05:57:49.183Z,3.05
2022-11-29T05:58:56.113Z,3.50
2022-11-29T06:00:02.455Z,3.03
2022-11-29T06:01:16.399Z,3.33
2022-11-29T06:02:34.124Z,3.30
2022-11-29T06:03:41.589Z,3.20
2022-11-29T06:04:59.931Z,3.13
2022-11-29T06:06:08.268Z,2.97
2022-11-29T06:07:17.506Z,3.30
2022-11-29T06:08:29.588Z,3.92
2022-11-29T06:09:41.056Z,3.35
2022-11-29T06:10:56.808Z,4.20
2022-11-29T06:12:06.995Z,3.45
2022-11-29T06:13:22.126Z,3.25
2022-11-29T06:14:42.904Z,3.38
2022-11-29T06:16:19.602Z,3.75
2022-11-29T06:17:42.467Z,4.68
2022-11-29T06:19:25.648Z,4.22
2022-11-29T06:20:50.601Z,3.53
2022-11-29T06:22:02.999Z,3.45
2022-11-29T06:23:30.849Z,4.53
2022-11-29T06:24:50.678Z,3.47
2022-11-29T06:26:07.428Z,3.38
2022-11-29T06:27:29.341Z,3.20
2022-11-29T06:28:54.599Z,3.15
2022-11-29T06:30:04.888Z,3.40
2022-11-29T06:31:16.790Z,3.60
2022-11-29T06:32:29.639Z,3.50
2022-11-29T06:33:41.886Z,3.13
2022-11-29T06:34:53.124Z,2.83
2022-11-29T06:36:11.095Z,3.80
2022-11-29T06:37:21.412Z,3.22
2022-11-29T06:38:27.498Z,3.15
2022-11-29T06:39:31.096Z,3.28
2022-11-29T06:40:33.920Z,3.17
2022-11-29T06:41:37.711Z,3.65
2022-11-29T06:42:41.349Z,3.50
2022-11-29T06:43:45.261Z,3.80
2022-11-29T06:44:49.152Z,2.97
2022-11-29T06:45:54.135Z,3.00
2022-11-29T06:47:04.762Z,3.00
2022-11-29T06:48:12.178Z,3.50
2022-11-29T06:49:23.216Z,3.78
2022-11-29T06:50:37.964Z,3.63
2022-11-29T06:51:53.587Z,3.97
2022-11-29T06:53:08.609Z,3.90
2022-11-29T06:54:26.989Z,3.58
2022-11-29T06:55:41.158Z,2.80
2022-11-29T06:56:56.397Z,2.97
2022-11-29T06:58:11.717Z,2.70
2022-11-29T06:59:32.981Z,3.17
2022-11-29T07:00:43.420Z,2.72
2022-11-29T07:01:51.975Z,3.30
2022-11-29T07:03:08.125Z,3.08
2022-11-29T07:04:31.987Z,3.20
2022-11-29T07:05:36.614Z,3.03
2022-11-29T07:06:39.404Z,3.05
2022-11-29T07:07:43.749Z,3.10
2022-11-29T07:08:48.551Z,3.23
2022-11-29T07:09:57.012Z,3.47
2022-11-29T07:11:01.280Z,3.30
2022-11-29T07:12:04.690Z,3.10
2022-11-29T07:13:13.418Z,2.90
2022-11-29T07:14:17.536Z,2.97
2022-11-29T07:15:23.883Z,3.38
2022-11-29T07:16:33.092Z,2.60
2022-11-29T07:17:43.694Z,3.13
2022-11-29T07:18:59.607Z,3.08
2022-11-29T07:20:11.748Z,2.80
2022-11-29T07:21:22.832Z,2.78
2022-11-29T07:22:46.106Z,3.08
2022-11-29T07:24:03.937Z,2.40
2022-11-29T07:25:20.512Z,2.75
2022-11-29T07:26:35.959Z,2.95
2022-11-29T07:27:47.516Z,3.30
2022-11-29T07:29:18.053Z,3.70
2022-11-29T07:30:21.922Z,3.10
2022-11-29T07:31:32.728Z,3.45
2022-11-29T07:32:50.364Z,3.53
2022-11-29T07:34:06.643Z,3.10
2022-11-29T07:35:18.179Z,2.85
2022-11-29T07:36:33.994Z,3.22
2022-11-29T07:37:45.282Z,3.00
2022-11-29T07:39:00.537Z,3.53
2022-11-29T07:40:14.317Z,3.42
2022-11-29T07:41:25.519Z,3.85
2022-11-29T07:42:37.557Z,3.53
2022-11-29T07:43:51.775Z,3.00
2022-11-29T07:45:06.529Z,3.23
2022-11-29T07:46:08.702Z,3.25
2022-11-29T07:47:12.061Z,2.90
2022-11-29T07:48:17.689Z,3.20
2022-11-29T07:49:19.823Z,3.10
2022-11-29T07:50:23.496Z,3.38
2022-11-29T07:51:27.015Z,3.63
2022-11-29T07:52:29.419Z,3.00
2022-11-29T07:53:32.908Z,3.85
2022-11-29T07:54:36.135Z,3.55
2022-11-29T07:55:38.540Z,3.80
2022-11-29T07:56:41.835Z,3.67
2022-11-29T07:57:44.055Z,3.88
2022-11-29T07:58:47.601Z,4.63
2022-11-29T07:59:50.924Z,3.90
2022-11-29T08:00:55.591Z,3.58
2022-11-29T08:01:58.936Z,3.67
2022-11-29T08:03:02.212Z,3.20
2022-11-29T08:04:04.557Z,3.80
2022-11-29T08:05:09.016Z,3.25
2022-11-29T08:06:11.328Z,3.47
2022-11-29T08:07:14.750Z,3.47
2022-11-29T08:08:18.011Z,3.55
2022-11-29T08:09:20.553Z,3.95
2022-11-29T08:10:24.313Z,3.33
2022-11-29T08:11:27.051Z,3.78
2022-11-29T08:12:30.265Z,3.70
2022-11-29T08:13:32.496Z,3.45
2022-11-29T08:14:35.754Z,3.78
2022-11-29T08:15:44.475Z,3.53
2022-11-29T08:16:49.196Z,4.17
2022-11-29T08:17:51.669Z,3.55
2022-11-29T08:18:54.956Z,4.00
2022-11-29T08:20:02.662Z,2.97
2022-11-29T08:21:08.360Z,3.40
2022-11-29T08:22:11.902Z,3.50
2022-11-29T08:23:16.026Z,3.72
2022-11-29T08:24:18.258Z,3.08
2022-11-29T08:25:21.657Z,3.95
2022-11-29T08:26:31.092Z,3.03
2022-11-29T08:27:33.847Z,3.33
2022-11-29T08:28:37.067Z,3.25
2022-11-29T08:29:39.293Z,3.67
2022-11-29T08:30:42.537Z,3.60
2022-11-29T08:31:46.188Z,3.42
2022-11-29T08:32:51.711Z,3.50
2022-11-29T08:33:55.199Z,3.47
2022-11-29T08:34:57.453Z,3.42
2022-11-29T08:36:06.247Z,3.88
2022-11-29T08:37:09.553Z,3.33
2022-11-29T08:38:12.736Z,3.53
2022-11-29T08:39:14.959Z,3.38
2022-11-29T08:40:18.616Z,3.65
2022-11-29T08:41:21.913Z,3.50
2022-11-29T08:42:24.292Z,3.45
2022-11-29T08:43:27.499Z,4.00
2022-11-29T08:44:31.780Z,3.83
2022-11-29T08:45:34.079Z,3.60
2022-11-29T08:46:55.040Z,3.53
2022-11-29T08:47:59.647Z,3.60
2022-11-29T08:49:02.019Z,3.03
2022-11-29T08:50:07.452Z,3.00
2022-11-29T08:51:10.712Z,3.30
2022-11-29T08:52:31.656Z,2.85
2022-11-29T08:53:42.920Z,2.40
2022-11-29T08:54:46.285Z,2.70
2022-11-29T08:55:50.644Z,2.78
2022-11-29T08:58:17.310Z,2.15
2022-11-29T08:59:20.956Z,2.25
2022-11-29T09:00:23.408Z,2.57
2022-11-29T09:01:26.871Z,3.00
2022-11-29T09:02:29.177Z,2.35
2022-11-29T09:03:52.180Z,2.72
2022-11-29T09:04:55.401Z,2.38
2022-11-29T09:05:59.358Z,2.58
2022-11-29T09:07:02.532Z,2.60
2022-11-29T09:08:05.108Z,2.30
2022-11-29T09:09:08.491Z,2.35
2022-11-29T09:10:11.554Z,2.35
2022-11-29T09:11:17.641Z,2.10
2022-11-29T09:12:20.012Z,2.30
2022-11-29T09:13:23.345Z,2.47
2022-11-29T09:14:26.847Z,2.63
2022-11-29T09:15:30.147Z,2.50
2022-11-29T09:16:37.262Z,2.45
2022-11-29T09:17:39.686Z,2.33
2022-11-29T09:18:50.052Z,1.90
2022-11-29T09:19:54.849Z,2.15
2022-11-29T09:20:57.049Z,1.90
2022-11-29T09:22:00.292Z,2.13
2022-11-29T09:23:02.781Z,2.20
2022-11-29T09:24:08.197Z,2.03
2022-11-29T09:25:10.512Z,2.22
2022-11-29T09:26:19.334Z,1.95
2022-11-29T09:27:22.720Z,2.20
2022-11-29T09:28:26.298Z,1.95
2022-11-29T09:29:29.786Z,1.85
2022-11-29T09:30:35.225Z,2.00
2022-11-29T09:31:38.187Z,1.92
2022-11-29T09:32:41.518Z,1.57
2022-11-29T09:33:45.967Z,2.35
2022-11-29T09:34:49.166Z,1.85
2022-11-29T09:35:52.406Z,2.00
2022-11-29T09:36:55.631Z,1.85
2022-11-29T09:37:58.061Z,1.75
2022-11-29T09:39:03.923Z,1.80
2022-11-29T09:40:08.726Z,1.90
2022-11-29T09:41:33.609Z,2.33
2022-11-29T09:42:48.921Z,1.77
2022-11-29T09:44:03.884Z,1.90
2022-11-29T09:45:10.858Z,1.75
2022-11-29T09:46:19.791Z,1.60
2022-11-29T09:47:39.916Z,1.65
2022-11-29T09:49:02.960Z,1.80
2022-11-29T09:50:22.584Z,1.48
2022-11-29T09:51:31.581Z,1.60
2022-11-29T09:52:47.115Z,1.92
2022-11-29T09:54:04.865Z,1.35
2022-11-29T09:55:24.042Z,1.50
2022-11-29T09:56:32.074Z,1.73
2022-11-29T09:57:34.719Z,1.30
2022-11-29T09:58:45.515Z,1.73
2022-11-29T09:59:51.119Z,1.65
2022-11-29T10:00:58.729Z,1.45
2022-11-29T10:02:07.496Z,1.73
2022-11-29T10:03:17.963Z,1.48
2022-11-29T10:04:28.699Z,1.80
2022-11-29T10:05:39.613Z,1.50
2022-11-29T10:06:47.349Z,1.67
2022-11-29T10:07:55.536Z,1.70
2022-11-29T10:09:04.639Z,1.30
2022-11-29T10:10:15.896Z,1.80
2022-11-29T10:11:23.300Z,1.60
2022-11-29T10:12:35.144Z,1.63
2022-11-29T10:13:40.603Z,1.77
2022-11-29T10:14:47.571Z,2.20
2022-11-29T10:15:54.359Z,2.05
2022-11-29T10:17:05.121Z,2.00
2022-11-29T10:18:18.254Z,2.33
2022-11-29T10:19:29.300Z,2.33
2022-11-29T10:20:40.472Z,1.90
2022-11-29T10:21:59.170Z,2.20
2022-11-29T10:23:08.113Z,2.20
2022-11-29T10:24:17.517Z,2.05
2022-11-29T10:25:26.063Z,2.15
2022-11-29T10:26:34.771Z,2.05
2022-11-29T10:27:42.169Z,2.28
2022-11-29T10:28:48.738Z,2.15
2022-11-29T10:29:52.675Z,2.53
2022-11-29T10:30:58.375Z,2.17
2022-11-29T10:32:10.044Z,2.20
2022-11-29T10:33:21.616Z,2.08
2022-11-29T10:34:28.032Z,1.83
2022-11-29T10:35:37.505Z,2.28
2022-11-29T10:36:44.441Z,1.80
2022-11-29T10:38:07.785Z,2.08
2022-11-29T10:39:17.971Z,1.55
2022-11-29T10:40:26.952Z,1.92
2022-11-29T10:41:30.274Z,1.70
2022-11-29T10:42:53.266Z,1.80
2022-11-29T10:43:58.762Z,1.52
2022-11-29T10:45:01.557Z,1.92
2022-11-29T10:46:05.401Z,2.00
2022-11-29T10:47:11.122Z,2.00
2022-11-29T10:48:17.370Z,2.00
2022-11-29T10:49:25.000Z,2.08
2022-11-29T10:50:31.644Z,2.10
2022-11-29T10:51:36.020Z,2.03
2022-11-29T10:52:39.462Z,1.83
2022-11-29T10:53:42.573Z,1.67
2022-11-29T10:54:48.484Z,2.20
2022-11-29T10:56:00.226Z,1.88
2022-11-29T10:57:09.902Z,1.85
2022-11-29T10:58:23.291Z,2.03
2022-11-29T10:59:33.067Z,1.80
2022-11-29T11:00:45.393Z,1.80
2022-11-29T11:01:48.989Z,1.88
2022-11-29T11:02:51.433Z,2.25
2022-11-29T11:03:56.726Z,1.92
2022-11-29T11:04:59.678Z,2.00
2022-11-29T11:06:12.180Z,1.70
2022-11-29T11:07:26.158Z,2.00
2022-11-29T11:08:29.844Z,1.90
2022-11-29T11:09:36.685Z,2.15
2022-11-29T11:10:39.515Z,1.50
2022-11-29T11:11:51.401Z,1.45
2022-11-29T11:13:03.486Z,1.80
2022-11-29T11:14:08.362Z,1.65
2022-11-29T11:15:16.993Z,1.73
2022-11-29T11:16:21.710Z,1.40
2022-11-29T11:17:27.337Z,1.52
2022-11-29T11:18:31.273Z,1.50
2022-11-29T11:19:36.041Z,1.50
2022-11-29T11:20:44.558Z,1.40
2022-11-29T11:21:49.869Z,1.50
2022-11-29T11:22:59.876Z,1.27
2022-11-29T11:24:03.680Z,1.80
2022-11-29T11:25:25.196Z,1.90
2022-11-29T11:26:29.177Z,1.65
2022-11-29T11:27:34.735Z,1.70
2022-11-29T11:28:43.624Z,2.00
2022-11-29T11:29:47.054Z,2.20
2022-11-29T11:30:52.125Z,1.80
2022-11-29T11:31:58.022Z,1.67
2022-11-29T11:33:19.770Z,1.80
2022-11-29T11:34:34.311Z,2.20
2022-11-29T11:35:37.413Z,1.70
2022-11-29T11:36:40.676Z,2.10
2022-11-29T11:37:57.666Z,1.92
2022-11-29T11:39:12.583Z,1.50
2022-11-29T11:40:26.226Z,1.55
2022-11-29T11:41:49.740Z,1.75
2022-11-29T11:42:53.401Z,1.90
2022-11-29T11:44:00.149Z,1.90
2022-11-29T11:45:06.137Z,1.95
2022-11-29T11:46:10.860Z,2.38
2022-11-29T11:47:19.410Z,2.03
2022-11-29T11:48:23.810Z,1.80
2022-11-29T11:49:30.692Z,1.80
2022-11-29T11:50:38.780Z,2.10
2022-11-29T11:51:44.256Z,2.20
2022-11-29T11:52:53.347Z,2.30
2022-11-29T11:53:58.836Z,1.80
2022-11-29T11:55:03.507Z,2.00
2022-11-29T11:56:10.217Z,2.00
2022-11-29T11:57:17.596Z,2.20
2022-11-29T11:58:23.961Z,1.60
2022-11-29T11:59:27.610Z,2.17
2022-11-29T12:02:27.195Z,1.70
2022-11-29T12:03:37.198Z,1.75
2022-11-29T12:04:40.772Z,2.03
2022-11-29T12:05:46.251Z,1.65
2022-11-29T12:06:53.579Z,1.75
2022-11-29T12:08:09.113Z,2.08
2022-11-29T12:09:33.637Z,2.10
2022-11-29T12:10:39.901Z,2.17
2022-11-29T12:11:47.752Z,2.03
2022-11-29T12:12:52.604Z,1.67
2022-11-29T12:13:59.234Z,1.80
2022-11-29T12:15:04.892Z,1.90
2022-11-29T12:16:14.980Z,1.88
2022-11-29T12:17:24.220Z,1.90
2022-11-29T12:18:35.458Z,1.85
2022-11-29T12:19:48.368Z,2.15
2022-11-29T12:20:57.351Z,2.30
2022-11-29T12:22:08.307Z,2.15
2022-11-29T12:23:25.282Z,1.90
2022-11-29T12:24:34.133Z,1.77
2022-11-29T12:25:45.063Z,1.63
2022-11-29T12:26:56.816Z,1.50
2022-11-29T12:28:01.647Z,1.92
2022-11-29T12:29:05.131Z,1.88
2022-11-29T12:30:14.325Z,1.80
2022-11-29T12:31:48.330Z,1.67
2022-11-29T12:33:04.054Z,1.90
2022-11-29T12:34:26.822Z,2.40
2022-11-29T12:35:47.508Z,2.00
2022-11-29T12:36:58.416Z,1.90
2022-11-29T12:38:11.552Z,2.07
2022-11-29T12:39:37.985Z,2.00
2022-11-29T12:40:48.489Z,2.00
2022-11-29T12:41:57.384Z,2.15
2022-11-29T12:43:11.142Z,1.90
2022-11-29T12:44:25.754Z,1.80
2022-11-29T12:45:42.019Z,2.00
2022-11-29T12:47:13.225Z,2.15
2022-11-29T12:48:30.271Z,2.00
2022-11-29T12:49:44.337Z,2.40
2022-11-29T12:51:02.966Z,2.20
2022-11-29T12:52:16.193Z,2.08
2022-11-29T12:53:30.204Z,2.00
2022-11-29T12:54:49.967Z,2.30
2022-11-29T12:56:02.438Z,2.17
2022-11-29T12:57:11.785Z,2.55
2022-11-29T12:58:23.152Z,2.72
2022-11-29T12:59:39.701Z,2.17
2022-11-29T13:00:50.561Z,2.47
2022-11-29T13:02:05.086Z,2.40
2022-11-29T13:03:20.026Z,2.13
2022-11-29T13:04:32.855Z,2.28
2022-11-29T13:05:50.791Z,2.08
2022-11-29T13:07:00.521Z,2.67
2022-11-29T13:08:16.918Z,2.70
2022-11-29T13:09:38.928Z,2.65
2022-11-29T13:10:57.417Z,2.53
2022-11-29T13:12:06.231Z,2.45
2022-11-29T13:13:21.658Z,2.10
2022-11-29T13:14:42.799Z,2.50
2022-11-29T13:15:53.926Z,2.27
2022-11-29T13:17:00.527Z,2.25
2022-11-29T13:18:12.355Z,2.58
2022-11-29T13:19:23.634Z,2.22
2022-11-29T13:20:40.283Z,2.20
2022-11-29T13:21:52.980Z,2.80
2022-11-29T13:23:03.137Z,2.40
2022-11-29T13:24:12.181Z,2.50
2022-11-29T13:25:17.560Z,3.00
2022-11-29T13:26:23.474Z,2.55
2022-11-29T13:27:31.521Z,2.37
2022-11-29T13:28:35.718Z,2.28
2022-11-29T13:29:39.177Z,2.70
2022-11-29T13:30:41.884Z,2.63
2022-11-29T13:31:46.815Z,2.60
2022-11-29T13:32:58.589Z,2.65
2022-11-29T13:34:09.121Z,2.92
2022-11-29T13:35:20.813Z,2.50
2022-11-29T13:36:31.618Z,2.70
2022-11-29T13:37:39.380Z,2.60
2022-11-29T13:38:47.566Z,2.30
2022-11-29T13:39:59.351Z,2.45
2022-11-29T13:41:13.926Z,2.50
2022-11-29T13:42:27.716Z,3.78
2022-11-29T13:43:40.358Z,2.67
2022-11-29T13:44:48.933Z,2.70
2022-11-29T13:45:59.403Z,2.55
2022-11-29T13:47:06.899Z,2.33
2022-11-29T13:48:33.744Z,2.10
2022-11-29T13:49:56.141Z,2.67
2022-11-29T13:51:00.199Z,2.87
2022-11-29T13:52:06.887Z,2.95
2022-11-29T13:53:16.805Z,2.55
2022-11-29T13:54:32.387Z,2.80
2022-11-29T13:55:43.387Z,2.70
2022-11-29T13:56:47.221Z,2.88
2022-11-29T13:59:25.806Z,2.28
2022-11-29T14:00:31.226Z,3.63
2022-11-29T14:01:45.711Z,2.50
2022-11-29T14:02:49.115Z,2.50
2022-11-29T14:04:04.745Z,2.47
2022-11-29T14:05:08.065Z,2.50
2022-11-29T14:06:14.982Z,2.50
2022-11-29T14:07:21.177Z,2.15
2022-11-29T14:08:37.921Z,2.65
2022-11-29T14:09:58.824Z,2.58
2022-11-29T14:11:05.045Z,2.20
2022-11-29T14:12:26.421Z,2.05
2022-11-29T14:13:35.448Z,1.92
2022-11-29T14:14:49.521Z,1.83
2022-11-29T14:15:58.243Z,2.03
2022-11-29T14:17:03.769Z,2.00
2022-11-29T14:18:09.452Z,1.73
2022-11-29T14:19:28.862Z,1.95
2022-11-29T14:20:55.321Z,1.70
2022-11-29T14:22:22.830Z,1.92
2022-11-29T14:23:36.017Z,1.88
2022-11-29T14:24:43.681Z,2.00
2022-11-29T14:26:25.098Z,2.15
2022-11-29T14:28:02.260Z,1.83
2022-11-29T14:29:44.982Z,2.17
2022-11-29T14:30:51.068Z,2.10
2022-11-29T14:31:56.692Z,2.05
2022-11-29T14:33:04.471Z,1.90
2022-11-29T14:34:10.972Z,1.85
2022-11-29T14:35:22.725Z,1.95
2022-11-29T14:36:40.279Z,1.80
2022-11-29T14:37:54.665Z,1.70
2022-11-29T14:39:05.734Z,1.65
2022-11-29T14:40:30.009Z,2.13
2022-11-29T14:41:45.407Z,1.85
2022-11-29T14:42:49.832Z,2.10
2022-11-29T14:44:13.808Z,1.95
2022-11-29T14:45:27.016Z,1.63
2022-11-29T14:46:32.346Z,1.80
2022-11-29T14:47:39.042Z,1.90
2022-11-29T14:48:45.424Z,1.80
2022-11-29T14:49:49.005Z,1.73
2022-11-29T14:51:09.753Z,1.52
2022-11-29T14:52:23.943Z,2.10
2022-11-29T14:53:34.236Z,1.58
2022-11-29T14:54:54.374Z,1.80
2022-11-29T14:56:30.588Z,1.83
2022-11-29T14:58:15.023Z,2.17
2022-11-29T14:59:48.437Z,1.92
2022-11-29T15:01:08.104Z,1.80
2022-11-29T15:02:32.565Z,1.40
2022-11-29T15:03:43.179Z,1.90
2022-11-29T15:04:46.625Z,1.80
2022-11-29T15:05:56.466Z,2.00
2022-11-29T15:07:00.423Z,1.98
2022-11-29T15:08:10.581Z,1.77
2022-11-29T15:09:21.276Z,1.80
2022-11-29T15:10:29.868Z,1.50
2022-11-29T15:11:46.708Z,1.50
2022-11-29T15:12:51.232Z,1.88
2022-11-29T15:13:59.362Z,1.65
2022-11-29T15:15:20.575Z,2.13
2022-11-29T15:16:37.936Z,1.35
2022-11-29T15:17:50.427Z,1.57
2022-11-29T15:19:28.923Z,1.30
2022-11-29T15:20:59.313Z,1.42
2022-11-29T15:22:09.809Z,1.50
2022-11-29T15:23:17.636Z,1.52
2022-11-29T15:24:24.996Z,1.40
2022-11-29T15:25:33.074Z,1.33
2022-11-29T15:26:35.607Z,1.30
2022-11-29T15:27:40.273Z,1.50
2022-11-29T15:28:43.713Z,1.40
2022-11-29T15:29:48.755Z,1.87
2022-11-29T15:31:03.939Z,1.58
2022-11-29T15:32:08.132Z,1.40
2022-11-29T15:33:21.513Z,1.67
2022-11-29T15:34:32.032Z,1.30
2022-11-29T15:35:37.026Z,1.27
2022-11-29T15:36:43.954Z,1.50
2022-11-29T15:37:48.970Z,1.60
2022-11-29T15:38:53.085Z,1.30
2022-11-29T15:40:04.245Z,1.30
2022-11-29T15:41:19.017Z,1.33
2022-11-29T15:42:21.153Z,1.15
2022-11-29T15:43:27.666Z,1.63
2022-11-29T15:44:32.789Z,1.20
2022-11-29T15:45:38.075Z,1.27
2022-11-29T15:46:42.787Z,1.40
2022-11-29T15:47:44.999Z,1.33